aviador You're here:

KMNI Decoded Metar

MANNING in SC, USA
Report Time2017-06-25 13:35:00
UTC Time2017-06-25 13:45:39
Flight Rules vfr VFR
Wind270° at 07 kt
W.Decomp.*RWY 20: 1.7 kt HW 6.8 kt RCW
W.Rank270° ranks 22
Current wind is above 270° avg. (5.6)
Visibility9999 m
Phenomena:N/A
Clouds:N/A
Expected CloudBase > 400 ft AGL from Temp-Dew spread
CeilingNone
Temp25°C (ISA +10)
Dew Point24°C (94% RH)
QNH1018 hPa
Density Alt1,509 ft
Elevation105 ft
Report Wrong Elevation
Raw Report
KMNI 251335Z AUTO 27007KT 10SM CLR 25/24 A3007 RMK AO2=

Extra information for KMNI:More info

Metar Taf Metar & Taf Last 4 Metars F.Rules Stats Wind Profile Meteogram Temp Stats Airport Information Weather charts Add Link Nearby VenuesMetar ALERT Operation Metar Decoded Social comments

AIRNAV info for KMNI